Nearby METAR Reports

 

KSNK - Snyder/Winston, Texas, USA
Distance from station: SSE 25mi, 41km
Updated: Tue, 02-Mar-2021 9:55am CST
Clear
Clear
 Wind from SSW
Wind: SSW 6 mph , 9 km/h
Temperature: 39°F , 4°C
Wind Chill: 35°F , 2°C
Dew Point: 25°F , -4°C
Humidity: 56%
Barometer: 30.32 inHg , 1026.8 hPa
Clouds: Clear
Visibility: 10 miles , 16 km
2021/03/02 15:55 KSNK 021555Z AUTO 21005KT 10SM CLR 04/M04 A3032 RMK AO2 T00441036
KSWW - Sweetwater, Texas, USA
Distance from station: SE 56mi, 90km
Updated: Tue, 02-Mar-2021 9:55am CST
Clear
Clear
 Wind from W
Wind: W 9 mph , 15 km/h
Temperature: 46°F , 8°C
Wind Chill: 41°F , 5°C
Dew Point: 19°F , -7°C
Humidity: 34%
Barometer: 30.34 inHg , 1027.4 hPa
Clouds: Clear
Visibility: 10 miles , 16 km
2021/03/02 15:55 KSWW 021555Z AUTO 26008KT 10SM CLR 08/M07 A3034 RMK AO2 T00831072
 
KLBB - Lubbock, Texas, USA
Distance from station: NW 59mi, 94km
Updated: Tue, 02-Mar-2021 9:53am CST
Clear
Clear
 Wind from WSW
Wind: WSW 8 mph , 13 km/h
Temperature: 45°F , 7°C
Wind Chill: 41°F , 5°C
Dew Point: 25°F , -4°C
Humidity: 46%
Barometer: 30.27 inHg , 1025.1 hPa
Clouds: Clear
Visibility: 10 miles , 16 km
2021/03/02 15:53 KLBB 021553Z 24007KT 10SM CLR 07/M04 A3027 RMK AO2 SLP251 T00671039
KPVW - Plainview, Texas, USA
Distance from station: NNW 85mi, 137km
Updated: Tue, 02-Mar-2021 9:55am CST
Clear
Clear
 Wind from WSW
Wind: WSW 12 mph , 19 km/h
Temperature: 45°F , 7°C
Wind Chill: 39°F , 4°C
Dew Point: 23°F , -5°C
Humidity: 42%
Barometer: 30.25 inHg , 1024.4 hPa
Clouds: Clear
Visibility: 10 miles , 16 km
2021/03/02 15:55 KPVW 021555Z AUTO 25010KT 10SM CLR 07/M05 A3025 RMK AO2 P0005 T00701052
 
KDYS - Dyess Afb/Abilen, Texas, USA
Distance from station: ESE 88mi, 141km
Updated: Tue, 02-Mar-2021 9:56am CST
Clear
Clear
 Wind from NW
Wind: NW 6 mph , 9 km/h
Temperature: 50°F , 10°C
Wind Chill: 48°F , 9°C
Dew Point: 18°F , -8°C
Humidity: 28%
Barometer: 30.31 inHg , 1026.4 hPa
Clouds: Clear
Visibility: 10 miles , 16 km
2021/03/02 15:56 KDYS 021556Z AUTO 31005KT 10SM CLR 10/M08 A3031 RMK AO2 SLP262 T00951081
KGNC - Seminole, Texas, USA
Distance from station: WSW 89mi, 144km
Updated: Tue, 02-Mar-2021 9:55am CST
Clear
Clear
 Wind from WSW
Wind: WSW 9 mph , 15 km/h
Temperature: 46°F , 8°C
Wind Chill: 41°F , 5°C
Dew Point: 23°F , -5°C
Humidity: 40%
Barometer: 30.35 inHg , 1027.8 hPa
Clouds: Clear
Visibility: 10 miles , 16 km
2021/03/02 15:55 KGNC 021555Z AUTO 25008KT 10SM CLR 08/M05 A3035 RMK AO2 T00751052
 
KE11 - Andrews, Texas, USA
Distance from station: WSW 93mi, 149km
Updated: Tue, 02-Mar-2021 10:00am CST
Clear
Clear
 Wind from W
Wind: W 8 mph , 13 km/h
Temperature: 45°F , 7°C
Wind Chill: 41°F , 5°C
Dew Point: 23°F , -5°C
Humidity: 42%
Barometer: 30.32 inHg , 1026.8 hPa
Clouds: Clear
Visibility: 10 miles , 16 km
2021/03/02 16:00 KE11 021600Z AUTO 26007KT 10SM CLR 07/M05 A3032 RMK AO2 T00651054
KABI - Abilene, Texas, USA
Distance from station: ESE 96mi, 154km
Updated: Tue, 02-Mar-2021 9:52am CST
Clear
Clear
 Wind from NW
Wind: NW 5 mph , 7 km/h
Temperature: 48°F , 9°C
Wind Chill: 46°F , 8°C
Dew Point: 23°F , -5°C
Humidity: 37%
Barometer: 30.33 inHg , 1027.1 hPa
Clouds: Clear
Visibility: 10 miles , 16 km
2021/03/02 15:52 KABI 021552Z 31004KT 10SM CLR 09/M05 A3033 RMK AO2 SLP267 T00891050
 
KMAF - Midland, Texas, USA
Distance from station: SW 96mi, 154km
Updated: Tue, 02-Mar-2021 9:53am CST
Clear
Clear
 Wind from WSW
Wind: WSW 6 mph , 9 km/h
Temperature: 46°F , 8°C
Wind Chill: 43°F , 6°C
Dew Point: 19°F , -7°C
Humidity: 34%
Barometer: 30.33 inHg , 1027.1 hPa
Clouds: Clear
Visibility: 10 miles , 16 km
2021/03/02 15:53 KMAF 021553Z 25005KT 10SM CLR 08/M07 A3033 RMK AO2 SLP265 T00781072
KCDS - Childress, Texas, USA
Distance from station: NNE 110mi, 177km
Updated: Tue, 02-Mar-2021 9:53am CST
Clear
Clear
 Wind from WNW
Wind: WNW 6 mph , 9 km/h
Temperature: 46°F , 8°C
Wind Chill: 43°F , 6°C
Dew Point: 28°F , -2°C
Humidity: 50%
Barometer: 30.28 inHg , 1025.4 hPa
Clouds: Clear
Visibility: 10 miles , 16 km
2021/03/02 15:53 KCDS 021553Z AUTO 29005KT 10SM CLR 08/M02 A3028 RMK AO2 SLP255 T00831022
 
KSJT - San Angelo, Texas, USA
Distance from station: SSE 121mi, 194km
Updated: Tue, 02-Mar-2021 9:51am CST
Clear
Clear
 Wind from W
Wind: W 6 mph , 9 km/h
Temperature: 45°F , 7°C
Wind Chill: 42°F , 6°C
Dew Point: 28°F , -2°C
Humidity: 53%
Barometer: 30.34 inHg , 1027.4 hPa
Clouds: Clear
Visibility: 10 miles , 16 km
2021/03/02 15:51 KSJT 021551Z 28005KT 10SM CLR 07/M02 A3034 RMK AO2 SLP278 T00721022
KHOB - Hobbs/Lea Co., New Mexico, USA
Distance from station: WSW 122mi, 196km
Updated: Tue, 02-Mar-2021 9:50am CST
Clear
Clear
 Wind from SW
Wind: SW 10 mph , 17 km/h
Temperature: 45°F , 7°C
Wind Chill: 40°F , 4°C
Dew Point: 14°F , -10°C
Humidity: 29%
Barometer: 30.30 inHg , 1026.1 hPa
Clouds: Clear
Visibility: 10 miles , 16 km
2021/03/02 15:50 KHOB 021550Z 22009KT 10SM SKC 07/M10 A3030
 
KCOM - Coleman Muni, Texas, USA
Distance from station: SE 131mi, 212km
Updated: Tue, 02-Mar-2021 9:55am CST
Clear
Clear
 Wind from ENE
Wind: ENE 3 mph , 6 km/h
Temperature: 52°F , 11°C
Dew Point: 21°F , -6°C
Humidity: 30%
Barometer: 30.32 inHg , 1026.8 hPa
Clouds: Clear
Visibility: 10 miles , 16 km
2021/03/02 15:55 KCOM 021555Z AUTO 06003KT 10SM CLR 11/M06 A3032 RMK AO2 T01091056
KBKD - Breckenridge, Texas, USA
Distance from station: E 134mi, 215km
Updated: Tue, 02-Mar-2021 10:00am CST
Clear
Clear
 Wind from calm
Wind: Calm
Temperature: 50°F , 10°C
Dew Point: 25°F , -4°C
Humidity: 37%
Barometer: 30.33 inHg , 1027.1 hPa
Clouds: Clear
Visibility: 10 miles , 16 km
2021/03/02 16:00 KBKD 021600Z AUTO 00000KT 10SM CLR 10/M04 A3033 RMK AO2 T00991043
 
KF05 - Vernon Wilbarger, Texas, USA
Distance from station: NE 137mi, 220km
Updated: Tue, 02-Mar-2021 10:00am CST
Clear
Clear
 Wind from calm
Wind: Calm
Temperature: 48°F , 9°C
Dew Point: 30°F , -1°C
Humidity: 50%
Barometer: 30.31 inHg , 1026.4 hPa
Clouds: Clear
Visibility: 10 miles , 16 km
2021/03/02 16:00 KF05 021600Z AUTO 00000KT 10SM CLR 09/M01 A3031 RMK AO2 T00871009